sensor_id;sensor_type;location;lat;lon;timestamp;temperature;humidity
8947;DHT22;4508;48.790;9.028;2023-02-19T00:02:07;8.90;99.90
8947;DHT22;4508;48.790;9.028;2023-02-19T00:04:34;8.90;99.90
8947;DHT22;4508;48.790;9.028;2023-02-19T00:07:01;8.90;99.90
8947;DHT22;4508;48.790;9.028;2023-02-19T00:09:28;8.90;99.90
8947;DHT22;4508;48.790;9.028;2023-02-19T00:11:54;8.90;99.90
8947;DHT22;4508;48.790;9.028;2023-02-19T00:14:21;8.90;99.90
8947;DHT22;4508;48.790;9.028;2023-02-19T00:16:49;8.90;99.90
8947;DHT22;4508;48.790;9.028;2023-02-19T00:19:17;8.90;99.90
8947;DHT22;4508;48.790;9.028;2023-02-19T00:21:44;8.90;99.90
8947;DHT22;4508;48.790;9.028;2023-02-19T00:24:12;8.90;99.90
8947;DHT22;4508;48.790;9.028;2023-02-19T00:26:40;8.90;99.90
8947;DHT22;4508;48.790;9.028;2023-02-19T00:29:09;8.90;99.90
8947;DHT22;4508;48.790;9.028;2023-02-19T00:31:37;8.90;99.90
8947;DHT22;4508;48.790;9.028;2023-02-19T00:34:05;8.90;99.90
8947;DHT22;4508;48.790;9.028;2023-02-19T00:36:35;8.90;99.90
8947;DHT22;4508;48.790;9.028;2023-02-19T00:39:02;8.90;99.90
8947;DHT22;4508;48.790;9.028;2023-02-19T00:41:29;8.90;99.90
8947;DHT22;4508;48.790;9.028;2023-02-19T00:43:57;8.90;99.90
8947;DHT22;4508;48.790;9.028;2023-02-19T00:46:26;8.90;99.90
8947;DHT22;4508;48.790;9.028;2023-02-19T00:48:54;8.90;99.90
8947;DHT22;4508;48.790;9.028;2023-02-19T00:51:25;8.90;99.90
8947;DHT22;4508;48.790;9.028;2023-02-19T00:53:52;8.90;99.90
8947;DHT22;4508;48.790;9.028;2023-02-19T00:56:19;8.90;99.90
8947;DHT22;4508;48.790;9.028;2023-02-19T00:58:46;8.90;99.90
8947;DHT22;4508;48.790;9.028;2023-02-19T01:01:13;8.90;99.90
8947;DHT22;4508;48.790;9.028;2023-02-19T01:03:40;8.90;99.90
8947;DHT22;4508;48.790;9.028;2023-02-19T01:06:08;8.80;99.90
8947;DHT22;4508;48.790;9.028;2023-02-19T01:08:36;8.80;99.90
8947;DHT22;4508;48.790;9.028;2023-02-19T01:11:05;8.90;99.90
8947;DHT22;4508;48.790;9.028;2023-02-19T01:13:32;8.90;99.90
8947;DHT22;4508;48.790;9.028;2023-02-19T01:16:03;8.80;99.90
8947;DHT22;4508;48.790;9.028;2023-02-19T01:18:31;8.80;99.90
8947;DHT22;4508;48.790;9.028;2023-02-19T01:20:57;8.80;99.90
8947;DHT22;4508;48.790;9.028;2023-02-19T01:23:25;8.80;99.90
8947;DHT22;4508;48.790;9.028;2023-02-19T01:25:53;8.90;99.90
8947;DHT22;4508;48.790;9.028;2023-02-19T01:28:19;8.80;99.90
8947;DHT22;4508;48.790;9.028;2023-02-19T01:30:47;8.90;99.90
8947;DHT22;4508;48.790;9.028;2023-02-19T01:33:13;8.90;99.90
8947;DHT22;4508;48.790;9.028;2023-02-19T01:35:40;8.90;99.90
8947;DHT22;4508;48.790;9.028;2023-02-19T01:38:07;8.90;99.90
8947;DHT22;4508;48.790;9.028;2023-02-19T01:40:34;8.80;99.90
8947;DHT22;4508;48.790;9.028;2023-02-19T01:43:02;8.90;99.90
8947;DHT22;4508;48.790;9.028;2023-02-19T01:45:30;8.90;99.90
8947;DHT22;4508;48.790;9.028;2023-02-19T01:48:03;8.90;99.90
8947;DHT22;4508;48.790;9.028;2023-02-19T01:50:36;8.90;99.90
8947;DHT22;4508;48.790;9.028;2023-02-19T01:53:06;8.90;99.90
8947;DHT22;4508;48.790;9.028;2023-02-19T01:55:34;8.90;99.90
8947;DHT22;4508;48.790;9.028;2023-02-19T01:58:03;8.90;99.90
8947;DHT22;4508;48.790;9.028;2023-02-19T02:00:31;8.90;99.90
8947;DHT22;4508;48.790;9.028;2023-02-19T02:02:58;8.90;99.90
8947;DHT22;4508;48.790;9.028;2023-02-19T02:05:46;8.80;99.90
8947;DHT22;4508;48.790;9.028;2023-02-19T02:08:15;8.80;99.90
8947;DHT22;4508;48.790;9.028;2023-02-19T02:10:59;8.80;99.90
8947;DHT22;4508;48.790;9.028;2023-02-19T02:13:28;8.80;99.90
8947;DHT22;4508;48.790;9.028;2023-02-19T02:16:02;8.80;99.90
8947;DHT22;4508;48.790;9.028;2023-02-19T02:18:41;8.70;99.90
8947;DHT22;4508;48.790;9.028;2023-02-19T02:21:48;8.70;99.90
8947;DHT22;4508;48.790;9.028;2023-02-19T02:27:27;8.50;99.90
8947;DHT22;4508;48.790;9.028;2023-02-19T02:30:11;8.50;99.90
8947;DHT22;4508;48.790;9.028;2023-02-19T02:32:44;8.50;99.90
8947;DHT22;4508;48.790;9.028;2023-02-19T02:35:19;8.70;99.90
8947;DHT22;4508;48.790;9.028;2023-02-19T02:37:47;8.40;99.90
8947;DHT22;4508;48.790;9.028;2023-02-19T02:40:16;8.30;99.90
8947;DHT22;4508;48.790;9.028;2023-02-19T02:42:43;8.20;99.90
8947;DHT22;4508;48.790;9.028;2023-02-19T02:45:26;8.30;99.90
8947;DHT22;4508;48.790;9.028;2023-02-19T02:48:19;8.30;99.90
8947;DHT22;4508;48.790;9.028;2023-02-19T02:50:51;8.30;99.90
8947;DHT22;4508;48.790;9.028;2023-02-19T02:53:21;8.30;99.90
8947;DHT22;4508;48.790;9.028;2023-02-19T02:56:07;8.30;99.90
8947;DHT22;4508;48.790;9.028;2023-02-19T02:58:36;8.30;99.90
8947;DHT22;4508;48.790;9.028;2023-02-19T03:01:07;8.50;99.90
8947;DHT22;4508;48.790;9.028;2023-02-19T03:03:57;8.30;99.90
8947;DHT22;4508;48.790;9.028;2023-02-19T03:06:28;8.30;99.90
8947;DHT22;4508;48.790;9.028;2023-02-19T03:08:58;8.30;99.90
8947;DHT22;4508;48.790;9.028;2023-02-19T03:11:28;8.30;99.90
8947;DHT22;4508;48.790;9.028;2023-02-19T03:14:17;8.20;99.90
8947;DHT22;4508;48.790;9.028;2023-02-19T03:17:09;8.20;99.90
8947;DHT22;4508;48.790;9.028;2023-02-19T03:19:56;8.10;99.90
8947;DHT22;4508;48.790;9.028;2023-02-19T03:22:25;8.10;99.90
8947;DHT22;4508;48.790;9.028;2023-02-19T03:24:57;8.10;99.90
8947;DHT22;4508;48.790;9.028;2023-02-19T03:27:47;8.10;99.90
8947;DHT22;4508;48.790;9.028;2023-02-19T03:30:17;8.10;99.90
8947;DHT22;4508;48.790;9.028;2023-02-19T03:32:49;8.10;99.90
8947;DHT22;4508;48.790;9.028;2023-02-19T03:35:20;8.10;99.90
8947;DHT22;4508;48.790;9.028;2023-02-19T03:37:53;8.10;99.90
8947;DHT22;4508;48.790;9.028;2023-02-19T03:40:27;8.10;99.90
8947;DHT22;4508;48.790;9.028;2023-02-19T03:42:59;8.10;99.90
8947;DHT22;4508;48.790;9.028;2023-02-19T03:45:37;8.00;99.90
8947;DHT22;4508;48.790;9.028;2023-02-19T03:48:21;8.00;99.90
8947;DHT22;4508;48.790;9.028;2023-02-19T03:51:00;8.10;99.90
8947;DHT22;4508;48.790;9.028;2023-02-19T03:53:31;8.00;99.90
8947;DHT22;4508;48.790;9.028;2023-02-19T03:56:05;8.10;99.90
8947;DHT22;4508;48.790;9.028;2023-02-19T03:58:39;8.10;99.90
8947;DHT22;4508;48.790;9.028;2023-02-19T04:01:09;8.20;99.90
8947;DHT22;4508;48.790;9.028;2023-02-19T04:03:42;8.00;99.90
8947;DHT22;4508;48.790;9.028;2023-02-19T04:06:14;8.00;99.90
8947;DHT22;4508;48.790;9.028;2023-02-19T04:08:46;8.20;99.90
8947;DHT22;4508;48.790;9.028;2023-02-19T04:11:15;8.00;99.90
8947;DHT22;4508;48.790;9.028;2023-02-19T04:13:46;8.10;99.90
8947;DHT22;4508;48.790;9.028;2023-02-19T04:16:18;8.20;99.90
8947;DHT22;4508;48.790;9.028;2023-02-19T04:18:48;7.60;99.90
8947;DHT22;4508;48.790;9.028;2023-02-19T04:21:16;8.60;99.90
8947;DHT22;4508;48.790;9.028;2023-02-19T04:23:44;7.80;99.90
8947;DHT22;4508;48.790;9.028;2023-02-19T04:26:12;7.90;99.90
8947;DHT22;4508;48.790;9.028;2023-02-19T04:28:41;8.00;99.90
8947;DHT22;4508;48.790;9.028;2023-02-19T04:31:09;8.00;99.90
8947;DHT22;4508;48.790;9.028;2023-02-19T04:33:36;8.10;99.90
8947;DHT22;4508;48.790;9.028;2023-02-19T04:36:06;8.20;99.90
8947;DHT22;4508;48.790;9.028;2023-02-19T04:38:33;8.20;99.90
8947;DHT22;4508;48.790;9.028;2023-02-19T04:41:00;8.00;99.90
8947;DHT22;4508;48.790;9.028;2023-02-19T04:43:26;8.00;99.90
8947;DHT22;4508;48.790;9.028;2023-02-19T04:45:53;8.00;99.90
8947;DHT22;4508;48.790;9.028;2023-02-19T04:48:20;8.00;99.90
8947;DHT22;4508;48.790;9.028;2023-02-19T04:50:46;8.00;99.90
8947;DHT22;4508;48.790;9.028;2023-02-19T04:53:14;8.00;99.90
8947;DHT22;4508;48.790;9.028;2023-02-19T04:55:41;7.90;99.90
8947;DHT22;4508;48.790;9.028;2023-02-19T04:58:08;8.30;99.90
8947;DHT22;4508;48.790;9.028;2023-02-19T05:00:34;7.80;99.90
8947;DHT22;4508;48.790;9.028;2023-02-19T05:03:01;7.80;99.90
8947;DHT22;4508;48.790;9.028;2023-02-19T05:05:28;8.00;99.90
8947;DHT22;4508;48.790;9.028;2023-02-19T05:07:55;7.80;99.90
8947;DHT22;4508;48.790;9.028;2023-02-19T05:10:23;8.00;99.90
8947;DHT22;4508;48.790;9.028;2023-02-19T05:12:49;7.90;99.90
8947;DHT22;4508;48.790;9.028;2023-02-19T05:15:16;7.80;99.90
8947;DHT22;4508;48.790;9.028;2023-02-19T05:17:43;8.00;99.90
8947;DHT22;4508;48.790;9.028;2023-02-19T05:20:10;7.90;99.90
8947;DHT22;4508;48.790;9.028;2023-02-19T05:22:36;7.90;99.90
8947;DHT22;4508;48.790;9.028;2023-02-19T05:25:04;7.90;99.90
8947;DHT22;4508;48.790;9.028;2023-02-19T05:27:32;7.90;99.90
8947;DHT22;4508;48.790;9.028;2023-02-19T05:29:59;7.80;99.90
8947;DHT22;4508;48.790;9.028;2023-02-19T05:32:25;7.80;99.90
8947;DHT22;4508;48.790;9.028;2023-02-19T05:34:52;7.80;99.90
8947;DHT22;4508;48.790;9.028;2023-02-19T05:37:19;7.90;99.90
8947;DHT22;4508;48.790;9.028;2023-02-19T05:39:45;7.80;99.90
8947;DHT22;4508;48.790;9.028;2023-02-19T05:42:13;7.70;99.90
8947;DHT22;4508;48.790;9.028;2023-02-19T05:44:42;7.70;99.90
8947;DHT22;4508;48.790;9.028;2023-02-19T05:47:08;7.70;99.90
8947;DHT22;4508;48.790;9.028;2023-02-19T05:49:36;8.20;99.90
8947;DHT22;4508;48.790;9.028;2023-02-19T05:52:03;7.70;99.90
8947;DHT22;4508;48.790;9.028;2023-02-19T05:54:30;7.70;99.90
8947;DHT22;4508;48.790;9.028;2023-02-19T05:56:57;7.40;99.90
8947;DHT22;4508;48.790;9.028;2023-02-19T05:59:25;8.10;99.90
8947;DHT22;4508;48.790;9.028;2023-02-19T06:01:53;7.80;99.90
8947;DHT22;4508;48.790;9.028;2023-02-19T06:04:20;7.90;99.90
8947;DHT22;4508;48.790;9.028;2023-02-19T06:06:47;7.70;99.90
8947;DHT22;4508;48.790;9.028;2023-02-19T06:09:14;7.60;99.90
8947;DHT22;4508;48.790;9.028;2023-02-19T06:11:41;7.60;99.90
8947;DHT22;4508;48.790;9.028;2023-02-19T06:14:10;7.50;99.90
8947;DHT22;4508;48.790;9.028;2023-02-19T06:16:37;7.70;99.90
8947;DHT22;4508;48.790;9.028;2023-02-19T06:19:05;7.70;99.90
8947;DHT22;4508;48.790;9.028;2023-02-19T06:21:31;7.60;99.90
8947;DHT22;4508;48.790;9.028;2023-02-19T06:24:02;7.80;99.90
8947;DHT22;4508;48.790;9.028;2023-02-19T06:26:29;7.60;99.90
8947;DHT22;4508;48.790;9.028;2023-02-19T06:28:55;7.60;99.90
8947;DHT22;4508;48.790;9.028;2023-02-19T06:31:22;7.70;99.90
8947;DHT22;4508;48.790;9.028;2023-02-19T06:33:49;7.60;99.90
8947;DHT22;4508;48.790;9.028;2023-02-19T06:36:18;7.70;99.90
8947;DHT22;4508;48.790;9.028;2023-02-19T06:38:45;7.60;99.90
8947;DHT22;4508;48.790;9.028;2023-02-19T06:41:12;7.70;99.90
8947;DHT22;4508;48.790;9.028;2023-02-19T06:43:39;7.60;99.90
8947;DHT22;4508;48.790;9.028;2023-02-19T06:46:07;7.70;99.90
8947;DHT22;4508;48.790;9.028;2023-02-19T06:48:34;7.70;99.90
8947;DHT22;4508;48.790;9.028;2023-02-19T06:51:01;8.50;99.90
8947;DHT22;4508;48.790;9.028;2023-02-19T06:53:29;7.70;99.90
8947;DHT22;4508;48.790;9.028;2023-02-19T06:55:56;7.70;99.90
8947;DHT22;4508;48.790;9.028;2023-02-19T06:58:23;7.70;99.90
8947;DHT22;4508;48.790;9.028;2023-02-19T07:00:50;7.70;99.90
8947;DHT22;4508;48.790;9.028;2023-02-19T07:03:17;7.70;99.90
8947;DHT22;4508;48.790;9.028;2023-02-19T07:05:44;7.70;99.90
8947;DHT22;4508;48.790;9.028;2023-02-19T07:08:11;7.70;99.90
8947;DHT22;4508;48.790;9.028;2023-02-19T07:10:39;7.70;99.90
8947;DHT22;4508;48.790;9.028;2023-02-19T07:13:06;7.80;99.90
8947;DHT22;4508;48.790;9.028;2023-02-19T07:15:32;7.70;99.90
8947;DHT22;4508;48.790;9.028;2023-02-19T07:17:59;7.70;99.90
8947;DHT22;4508;48.790;9.028;2023-02-19T07:20:26;7.70;99.90
8947;DHT22;4508;48.790;9.028;2023-02-19T07:22:52;7.80;99.90
8947;DHT22;4508;48.790;9.028;2023-02-19T07:25:19;7.70;99.90
8947;DHT22;4508;48.790;9.028;2023-02-19T07:27:47;7.80;99.90
8947;DHT22;4508;48.790;9.028;2023-02-19T07:30:14;7.80;99.90
8947;DHT22;4508;48.790;9.028;2023-02-19T07:32:41;7.80;99.90
8947;DHT22;4508;48.790;9.028;2023-02-19T07:35:09;8.20;99.90
8947;DHT22;4508;48.790;9.028;2023-02-19T07:37:36;7.90;99.90
8947;DHT22;4508;48.790;9.028;2023-02-19T07:40:03;8.10;99.90
8947;DHT22;4508;48.790;9.028;2023-02-19T07:42:30;7.80;99.90
8947;DHT22;4508;48.790;9.028;2023-02-19T07:44:58;8.20;99.90
8947;DHT22;4508;48.790;9.028;2023-02-19T07:47:25;7.90;99.90
8947;DHT22;4508;48.790;9.028;2023-02-19T07:49:52;7.90;99.90
8947;DHT22;4508;48.790;9.028;2023-02-19T07:52:18;7.80;99.90
8947;DHT22;4508;48.790;9.028;2023-02-19T07:54:45;7.90;99.90
8947;DHT22;4508;48.790;9.028;2023-02-19T07:57:12;8.00;99.90
8947;DHT22;4508;48.790;9.028;2023-02-19T07:59:38;7.50;99.90
8947;DHT22;4508;48.790;9.028;2023-02-19T08:02:12;8.00;99.90
8947;DHT22;4508;48.790;9.028;2023-02-19T08:04:58;7.90;99.90
8947;DHT22;4508;48.790;9.028;2023-02-19T08:07:30;8.20;99.90
8947;DHT22;4508;48.790;9.028;2023-02-19T08:09:57;8.20;99.90
8947;DHT22;4508;48.790;9.028;2023-02-19T08:12:54;8.20;99.90
8947;DHT22;4508;48.790;9.028;2023-02-19T08:15:38;8.30;99.90
8947;DHT22;4508;48.790;9.028;2023-02-19T08:18:06;8.20;99.90
8947;DHT22;4508;48.790;9.028;2023-02-19T08:20:33;8.30;99.90
8947;DHT22;4508;48.790;9.028;2023-02-19T08:23:00;8.30;99.90
8947;DHT22;4508;48.790;9.028;2023-02-19T08:25:27;8.30;99.90
8947;DHT22;4508;48.790;9.028;2023-02-19T08:27:54;8.30;99.90
8947;DHT22;4508;48.790;9.028;2023-02-19T08:30:20;8.30;99.90
8947;DHT22;4508;48.790;9.028;2023-02-19T08:32:47;8.30;99.90
8947;DHT22;4508;48.790;9.028;2023-02-19T08:35:15;8.30;99.90
8947;DHT22;4508;48.790;9.028;2023-02-19T08:37:42;8.30;99.90
8947;DHT22;4508;48.790;9.028;2023-02-19T08:40:10;8.40;99.90
8947;DHT22;4508;48.790;9.028;2023-02-19T08:42:36;8.30;99.90
8947;DHT22;4508;48.790;9.028;2023-02-19T08:45:04;8.30;99.90
8947;DHT22;4508;48.790;9.028;2023-02-19T08:47:31;8.30;99.90
8947;DHT22;4508;48.790;9.028;2023-02-19T08:49:59;8.30;99.90
8947;DHT22;4508;48.790;9.028;2023-02-19T08:52:27;8.20;99.90
8947;DHT22;4508;48.790;9.028;2023-02-19T08:54:54;8.10;99.90
8947;DHT22;4508;48.790;9.028;2023-02-19T08:57:21;8.20;99.90
8947;DHT22;4508;48.790;9.028;2023-02-19T08:59:47;8.20;99.90
8947;DHT22;4508;48.790;9.028;2023-02-19T09:02:14;7.80;99.90
8947;DHT22;4508;48.790;9.028;2023-02-19T09:04:41;8.30;99.90
8947;DHT22;4508;48.790;9.028;2023-02-19T09:07:08;7.90;99.90
8947;DHT22;4508;48.790;9.028;2023-02-19T09:09:37;8.30;99.90
8947;DHT22;4508;48.790;9.028;2023-02-19T09:12:04;7.90;99.90
8947;DHT22;4508;48.790;9.028;2023-02-19T09:14:31;8.30;99.90
8947;DHT22;4508;48.790;9.028;2023-02-19T09:16:58;8.40;99.90
8947;DHT22;4508;48.790;9.028;2023-02-19T09:19:25;8.40;99.90
8947;DHT22;4508;48.790;9.028;2023-02-19T09:21:52;8.50;99.90
8947;DHT22;4508;48.790;9.028;2023-02-19T09:24:18;8.50;99.90
8947;DHT22;4508;48.790;9.028;2023-02-19T09:26:49;8.50;99.90
8947;DHT22;4508;48.790;9.028;2023-02-19T09:29:16;8.50;99.90
8947;DHT22;4508;48.790;9.028;2023-02-19T09:31:42;8.60;99.90
8947;DHT22;4508;48.790;9.028;2023-02-19T09:34:09;8.70;99.90
8947;DHT22;4508;48.790;9.028;2023-02-19T09:36:36;8.80;99.90
8947;DHT22;4508;48.790;9.028;2023-02-19T09:39:04;8.80;99.90
8947;DHT22;4508;48.790;9.028;2023-02-19T09:41:34;8.70;99.90
8947;DHT22;4508;48.790;9.028;2023-02-19T09:44:05;8.80;99.90
8947;DHT22;4508;48.790;9.028;2023-02-19T09:46:34;8.90;99.90
8947;DHT22;4508;48.790;9.028;2023-02-19T09:49:04;8.80;99.90
8947;DHT22;4508;48.790;9.028;2023-02-19T09:51:34;8.90;99.90
8947;DHT22;4508;48.790;9.028;2023-02-19T09:54:03;8.90;99.90
8947;DHT22;4508;48.790;9.028;2023-02-19T09:56:31;8.90;99.90
8947;DHT22;4508;48.790;9.028;2023-02-19T09:58:59;9.00;99.90
8947;DHT22;4508;48.790;9.028;2023-02-19T10:01:31;9.00;99.90
8947;DHT22;4508;48.790;9.028;2023-02-19T10:03:58;9.10;99.90
8947;DHT22;4508;48.790;9.028;2023-02-19T10:06:27;9.00;99.90
8947;DHT22;4508;48.790;9.028;2023-02-19T10:08:59;9.10;99.90
8947;DHT22;4508;48.790;9.028;2023-02-19T10:11:31;9.10;99.90
8947;DHT22;4508;48.790;9.028;2023-02-19T10:14:04;9.10;99.90
8947;DHT22;4508;48.790;9.028;2023-02-19T10:16:37;9.30;99.90
8947;DHT22;4508;48.790;9.028;2023-02-19T10:19:08;9.40;99.90
8947;DHT22;4508;48.790;9.028;2023-02-19T10:21:36;9.40;99.90
8947;DHT22;4508;48.790;9.028;2023-02-19T10:24:05;9.70;99.90
8947;DHT22;4508;48.790;9.028;2023-02-19T10:26:32;10.10;99.90
8947;DHT22;4508;48.790;9.028;2023-02-19T10:29:01;10.10;99.90
8947;DHT22;4508;48.790;9.028;2023-02-19T10:31:30;10.00;99.90
8947;DHT22;4508;48.790;9.028;2023-02-19T10:34:00;9.80;99.90
8947;DHT22;4508;48.790;9.028;2023-02-19T10:36:28;9.60;99.90
8947;DHT22;4508;48.790;9.028;2023-02-19T10:38:57;9.70;99.90
8947;DHT22;4508;48.790;9.028;2023-02-19T10:41:25;9.50;99.90
8947;DHT22;4508;48.790;9.028;2023-02-19T10:43:54;9.40;99.90
8947;DHT22;4508;48.790;9.028;2023-02-19T10:46:24;9.50;99.90
8947;DHT22;4508;48.790;9.028;2023-02-19T10:48:54;9.60;99.90
8947;DHT22;4508;48.790;9.028;2023-02-19T10:51:30;9.60;99.90
8947;DHT22;4508;48.790;9.028;2023-02-19T10:54:04;9.50;99.90
8947;DHT22;4508;48.790;9.028;2023-02-19T10:56:32;9.60;99.90
8947;DHT22;4508;48.790;9.028;2023-02-19T10:59:14;9.50;99.90
8947;DHT22;4508;48.790;9.028;2023-02-19T11:01:52;9.50;99.90
8947;DHT22;4508;48.790;9.028;2023-02-19T11:04:20;9.50;99.90
8947;DHT22;4508;48.790;9.028;2023-02-19T11:06:48;9.60;99.90
8947;DHT22;4508;48.790;9.028;2023-02-19T11:09:24;9.70;99.90
8947;DHT22;4508;48.790;9.028;2023-02-19T11:11:53;9.70;99.90
8947;DHT22;4508;48.790;9.028;2023-02-19T11:14:22;9.60;99.90
8947;DHT22;4508;48.790;9.028;2023-02-19T11:16:51;9.70;99.90
8947;DHT22;4508;48.790;9.028;2023-02-19T11:19:23;9.70;99.90
8947;DHT22;4508;48.790;9.028;2023-02-19T11:21:51;9.30;99.90
8947;DHT22;4508;48.790;9.028;2023-02-19T11:24:25;9.60;99.90
8947;DHT22;4508;48.790;9.028;2023-02-19T11:26:52;9.60;99.90
8947;DHT22;4508;48.790;9.028;2023-02-19T11:29:21;9.50;99.90
8947;DHT22;4508;48.790;9.028;2023-02-19T11:31:49;9.40;99.90
8947;DHT22;4508;48.790;9.028;2023-02-19T11:34:28;9.40;99.90
8947;DHT22;4508;48.790;9.028;2023-02-19T11:37:10;9.40;99.90
8947;DHT22;4508;48.790;9.028;2023-02-19T11:39:39;9.40;99.90
8947;DHT22;4508;48.790;9.028;2023-02-19T11:42:23;9.40;99.90
8947;DHT22;4508;48.790;9.028;2023-02-19T11:45:09;9.50;99.90
8947;DHT22;4508;48.790;9.028;2023-02-19T11:47:49;9.70;99.90
8947;DHT22;4508;48.790;9.028;2023-02-19T11:50:21;9.70;99.90
8947;DHT22;4508;48.790;9.028;2023-02-19T11:53:03;9.60;99.90
8947;DHT22;4508;48.790;9.028;2023-02-19T11:55:46;9.80;99.90
8947;DHT22;4508;48.790;9.028;2023-02-19T11:58:35;9.80;99.90
8947;DHT22;4508;48.790;9.028;2023-02-19T12:01:09;9.90;99.90
8947;DHT22;4508;48.790;9.028;2023-02-19T12:03:51;9.80;99.90
8947;DHT22;4508;48.790;9.028;2023-02-19T12:06:27;9.80;99.90
8947;DHT22;4508;48.790;9.028;2023-02-19T12:09:33;9.80;99.90
8947;DHT22;4508;48.790;9.028;2023-02-19T12:12:18;9.70;99.90
8947;DHT22;4508;48.790;9.028;2023-02-19T12:15:01;9.80;99.90
8947;DHT22;4508;48.790;9.028;2023-02-19T12:17:43;9.70;99.90
8947;DHT22;4508;48.790;9.028;2023-02-19T12:20:17;9.90;99.90
8947;DHT22;4508;48.790;9.028;2023-02-19T12:22:52;9.90;99.90
8947;DHT22;4508;48.790;9.028;2023-02-19T12:25:37;9.90;99.90
8947;DHT22;4508;48.790;9.028;2023-02-19T12:28:18;10.00;99.90
8947;DHT22;4508;48.790;9.028;2023-02-19T12:34:09;11.00;99.90
8947;DHT22;4508;48.790;9.028;2023-02-19T12:36:50;10.90;99.90
8947;DHT22;4508;48.790;9.028;2023-02-19T12:39:26;10.80;99.90
8947;DHT22;4508;48.790;9.028;2023-02-19T12:42:02;10.70;99.90
8947;DHT22;4508;48.790;9.028;2023-02-19T12:44:37;10.40;99.90
8947;DHT22;4508;48.790;9.028;2023-02-19T12:47:06;10.50;99.90
8947;DHT22;4508;48.790;9.028;2023-02-19T12:49:37;10.60;99.90
8947;DHT22;4508;48.790;9.028;2023-02-19T12:52:08;10.70;99.90
8947;DHT22;4508;48.790;9.028;2023-02-19T12:54:39;10.80;99.90
8947;DHT22;4508;48.790;9.028;2023-02-19T12:57:11;11.10;99.90
8947;DHT22;4508;48.790;9.028;2023-02-19T12:59:42;11.10;99.90
8947;DHT22;4508;48.790;9.028;2023-02-19T13:02:14;11.00;99.90
8947;DHT22;4508;48.790;9.028;2023-02-19T13:04:48;11.00;99.90
8947;DHT22;4508;48.790;9.028;2023-02-19T13:07:19;11.40;99.90
8947;DHT22;4508;48.790;9.028;2023-02-19T13:09:50;11.20;99.90
8947;DHT22;4508;48.790;9.028;2023-02-19T13:12:22;11.70;99.90
8947;DHT22;4508;48.790;9.028;2023-02-19T13:14:54;11.50;99.90
8947;DHT22;4508;48.790;9.028;2023-02-19T13:17:25;11.50;99.90
8947;DHT22;4508;48.790;9.028;2023-02-19T13:19:57;11.20;99.90
8947;DHT22;4508;48.790;9.028;2023-02-19T13:22:33;11.30;99.90
8947;DHT22;4508;48.790;9.028;2023-02-19T13:25:18;11.10;99.90
8947;DHT22;4508;48.790;9.028;2023-02-19T13:28:08;10.90;99.90
8947;DHT22;4508;48.790;9.028;2023-02-19T13:30:47;10.40;99.90
8947;DHT22;4508;48.790;9.028;2023-02-19T13:33:29;10.40;99.90
8947;DHT22;4508;48.790;9.028;2023-02-19T13:36:05;10.10;99.90
8947;DHT22;4508;48.790;9.028;2023-02-19T13:38:37;10.00;99.90
8947;DHT22;4508;48.790;9.028;2023-02-19T13:41:05;10.10;99.90
8947;DHT22;4508;48.790;9.028;2023-02-19T13:43:35;10.00;99.90
8947;DHT22;4508;48.790;9.028;2023-02-19T13:46:05;9.90;99.90
8947;DHT22;4508;48.790;9.028;2023-02-19T13:48:34;9.90;99.90
8947;DHT22;4508;48.790;9.028;2023-02-19T13:54:13;9.80;99.90
8947;DHT22;4508;48.790;9.028;2023-02-19T13:56:40;9.90;99.90
8947;DHT22;4508;48.790;9.028;2023-02-19T13:59:25;9.80;99.90
8947;DHT22;4508;48.790;9.028;2023-02-19T14:05:00;9.70;99.90
8947;DHT22;4508;48.790;9.028;2023-02-19T14:07:49;9.70;99.90
8947;DHT22;4508;48.790;9.028;2023-02-19T14:13:56;9.80;99.90
8947;DHT22;4508;48.790;9.028;2023-02-19T14:16:59;9.90;99.90
8947;DHT22;4508;48.790;9.028;2023-02-19T14:19:50;10.00;99.90
8947;DHT22;4508;48.790;9.028;2023-02-19T14:22:49;10.10;99.90
8947;DHT22;4508;48.790;9.028;2023-02-19T14:25:50;10.20;99.90
8947;DHT22;4508;48.790;9.028;2023-02-19T14:28:25;10.20;99.90
8947;DHT22;4508;48.790;9.028;2023-02-19T14:30:55;10.40;99.90
8947;DHT22;4508;48.790;9.028;2023-02-19T14:33:26;10.30;99.90
8947;DHT22;4508;48.790;9.028;2023-02-19T14:35:56;10.40;99.90
8947;DHT22;4508;48.790;9.028;2023-02-19T14:38:27;10.30;99.90
8947;DHT22;4508;48.790;9.028;2023-02-19T14:40:56;10.30;99.90
8947;DHT22;4508;48.790;9.028;2023-02-19T14:43:24;10.20;99.90
8947;DHT22;4508;48.790;9.028;2023-02-19T14:45:55;10.30;99.90
8947;DHT22;4508;48.790;9.028;2023-02-19T14:48:27;10.40;99.90
8947;DHT22;4508;48.790;9.028;2023-02-19T14:50:57;10.20;99.90
8947;DHT22;4508;48.790;9.028;2023-02-19T14:53:28;10.40;99.90
8947;DHT22;4508;48.790;9.028;2023-02-19T14:55:58;10.20;99.90
8947;DHT22;4508;48.790;9.028;2023-02-19T14:58:30;10.20;99.90
8947;DHT22;4508;48.790;9.028;2023-02-19T15:00:57;10.20;99.90
8947;DHT22;4508;48.790;9.028;2023-02-19T15:03:28;10.20;99.90
8947;DHT22;4508;48.790;9.028;2023-02-19T15:05:59;10.10;99.90
8947;DHT22;4508;48.790;9.028;2023-02-19T15:08:31;10.00;99.90
8947;DHT22;4508;48.790;9.028;2023-02-19T15:11:00;9.80;99.90
8947;DHT22;4508;48.790;9.028;2023-02-19T15:13:28;9.80;99.90
8947;DHT22;4508;48.790;9.028;2023-02-19T15:15:56;9.70;99.90
8947;DHT22;4508;48.790;9.028;2023-02-19T15:18:25;9.70;99.90
8947;DHT22;4508;48.790;9.028;2023-02-19T15:20:59;9.70;99.90
8947;DHT22;4508;48.790;9.028;2023-02-19T15:23:28;9.60;99.90
8947;DHT22;4508;48.790;9.028;2023-02-19T15:25:56;9.60;99.90
8947;DHT22;4508;48.790;9.028;2023-02-19T15:28:29;9.40;99.90
8947;DHT22;4508;48.790;9.028;2023-02-19T15:31:05;9.50;99.90
8947;DHT22;4508;48.790;9.028;2023-02-19T15:33:37;9.40;99.90
8947;DHT22;4508;48.790;9.028;2023-02-19T15:36:06;9.40;99.90
8947;DHT22;4508;48.790;9.028;2023-02-19T15:38:33;9.10;99.90
8947;DHT22;4508;48.790;9.028;2023-02-19T15:41:00;9.40;99.90
8947;DHT22;4508;48.790;9.028;2023-02-19T15:43:31;9.30;99.90
8947;DHT22;4508;48.790;9.028;2023-02-19T15:46:02;9.30;99.90
8947;DHT22;4508;48.790;9.028;2023-02-19T15:48:33;9.30;99.90
8947;DHT22;4508;48.790;9.028;2023-02-19T15:51:05;9.20;99.90
8947;DHT22;4508;48.790;9.028;2023-02-19T15:53:37;9.20;99.90
8947;DHT22;4508;48.790;9.028;2023-02-19T15:56:09;9.20;99.90
8947;DHT22;4508;48.790;9.028;2023-02-19T15:58:40;9.10;99.90
8947;DHT22;4508;48.790;9.028;2023-02-19T16:01:13;9.10;99.90
8947;DHT22;4508;48.790;9.028;2023-02-19T16:03:42;9.00;99.90
8947;DHT22;4508;48.790;9.028;2023-02-19T16:06:13;9.10;99.90
8947;DHT22;4508;48.790;9.028;2023-02-19T16:08:41;9.10;99.90
8947;DHT22;4508;48.790;9.028;2023-02-19T16:11:28;9.00;99.90
8947;DHT22;4508;48.790;9.028;2023-02-19T16:14:17;9.00;99.90
8947;DHT22;4508;48.790;9.028;2023-02-19T16:16:45;8.90;99.90
8947;DHT22;4508;48.790;9.028;2023-02-19T16:19:19;9.00;99.90
8947;DHT22;4508;48.790;9.028;2023-02-19T16:21:48;9.00;99.90
8947;DHT22;4508;48.790;9.028;2023-02-19T16:24:24;8.90;99.90
8947;DHT22;4508;48.790;9.028;2023-02-19T16:29:20;8.90;99.90
8947;DHT22;4508;48.790;9.028;2023-02-19T16:31:49;8.70;99.90
8947;DHT22;4508;48.790;9.028;2023-02-19T16:34:23;8.80;99.90
8947;DHT22;4508;48.790;9.028;2023-02-19T16:36:53;8.80;99.90
8947;DHT22;4508;48.790;9.028;2023-02-19T16:39:21;8.70;99.90
8947;DHT22;4508;48.790;9.028;2023-02-19T16:42:12;8.40;99.90
8947;DHT22;4508;48.790;9.028;2023-02-19T16:44:43;8.60;99.90
8947;DHT22;4508;48.790;9.028;2023-02-19T16:47:30;8.60;99.90
8947;DHT22;4508;48.790;9.028;2023-02-19T16:50:00;8.50;99.90
8947;DHT22;4508;48.790;9.028;2023-02-19T16:52:29;8.50;99.90
8947;DHT22;4508;48.790;9.028;2023-02-19T16:54:56;8.40;99.90
8947;DHT22;4508;48.790;9.028;2023-02-19T16:57:22;9.00;99.90
8947;DHT22;4508;48.790;9.028;2023-02-19T16:59:49;8.50;99.90